createdAt,value
2023-01-06T00:01:37.595Z,2.07
2023-01-06T00:04:08.244Z,2.07
2023-01-06T00:06:37.682Z,2.06
2023-01-06T00:09:07.194Z,2.08
2023-01-06T00:11:37.970Z,2.06
2023-01-06T00:14:07.135Z,2.04
2023-01-06T00:16:37.034Z,2.02
2023-01-06T00:19:07.573Z,1.99
2023-01-06T00:21:36.969Z,2.00
2023-01-06T00:24:06.636Z,1.98
2023-01-06T00:26:35.903Z,1.98
2023-01-06T00:29:05.895Z,2.00
2023-01-06T00:31:35.202Z,1.97
2023-01-06T00:34:04.221Z,1.92
2023-01-06T00:36:34.919Z,1.92
2023-01-06T00:39:04.676Z,1.91
2023-01-06T00:42:00.041Z,1.90
2023-01-06T00:44:29.162Z,1.89
2023-01-06T00:46:58.840Z,1.91
2023-01-06T00:49:28.395Z,1.92
2023-01-06T00:51:59.164Z,1.89
2023-01-06T00:54:28.386Z,1.86
2023-01-06T00:56:58.177Z,1.89
2023-01-06T00:59:27.972Z,1.89
2023-01-06T01:01:59.016Z,1.87
2023-01-06T01:04:29.343Z,1.84
2023-01-06T01:07:00.740Z,1.84
2023-01-06T01:09:31.578Z,1.82
2023-01-06T01:12:14.210Z,1.79
2023-01-06T01:14:47.023Z,1.78
2023-01-06T01:17:19.277Z,1.77
2023-01-06T01:19:49.977Z,1.76
2023-01-06T01:22:20.832Z,1.75
2023-01-06T01:24:50.115Z,1.74
2023-01-06T01:27:19.897Z,1.75
2023-01-06T01:29:49.455Z,1.71
2023-01-06T01:32:18.713Z,1.71
2023-01-06T01:34:47.817Z,1.70
2023-01-06T01:37:17.196Z,1.67
2023-01-06T01:39:49.169Z,1.67
2023-01-06T01:42:20.819Z,1.65
2023-01-06T01:45:05.934Z,1.66
2023-01-06T01:47:44.471Z,1.66
2023-01-06T01:50:24.563Z,1.64
2023-01-06T01:53:06.547Z,1.64
2023-01-06T01:55:39.122Z,1.64
2023-01-06T01:58:11.151Z,1.62
2023-01-06T02:00:43.944Z,1.60
2023-01-06T02:03:15.621Z,1.58
2023-01-06T02:05:50.083Z,1.54
2023-01-06T02:08:27.573Z,1.52
2023-01-06T02:10:58.149Z,1.52
2023-01-06T02:13:28.287Z,1.50
2023-01-06T02:16:05.840Z,1.46
2023-01-06T02:18:48.071Z,1.46
2023-01-06T02:21:31.754Z,1.41
2023-01-06T02:24:46.743Z,1.36
2023-01-06T02:27:41.275Z,1.40
2023-01-06T02:30:43.051Z,1.39
2023-01-06T02:33:25.191Z,1.32
2023-01-06T02:36:21.902Z,1.26
2023-01-06T02:39:05.171Z,1.26
2023-01-06T02:41:43.471Z,1.22
2023-01-06T02:44:25.351Z,1.22
2023-01-06T02:47:14.346Z,1.20
2023-01-06T02:49:57.179Z,1.18
2023-01-06T02:52:37.768Z,1.18
2023-01-06T02:55:12.462Z,1.15
2023-01-06T02:57:46.818Z,1.12
2023-01-06T03:00:22.736Z,1.12
2023-01-06T03:02:59.108Z,1.14
2023-01-06T03:05:30.693Z,1.13
2023-01-06T03:08:03.814Z,1.13
2023-01-06T03:10:34.181Z,1.12
2023-01-06T03:13:09.459Z,1.11
2023-01-06T03:15:38.622Z,1.13
2023-01-06T03:18:08.498Z,1.14
2023-01-06T03:20:40.272Z,1.12
2023-01-06T03:23:09.809Z,1.12
2023-01-06T03:25:40.250Z,1.12
2023-01-06T03:28:11.344Z,1.13
2023-01-06T03:48:00.579Z,1.06
2023-01-06T03:50:36.649Z,1.06
2023-01-06T03:53:17.419Z,1.03
2023-01-06T03:55:53.213Z,1.03
2023-01-06T03:58:24.407Z,1.03
2023-01-06T04:00:55.428Z,1.03
2023-01-06T04:03:27.351Z,1.00
2023-01-06T04:05:56.633Z,1.03
2023-01-06T04:08:25.991Z,1.01
2023-01-06T04:10:55.095Z,1.01
2023-01-06T04:13:24.276Z,1.04
2023-01-06T04:15:56.143Z,1.00
2023-01-06T04:18:26.969Z,1.01
2023-01-06T04:20:56.151Z,1.02
2023-01-06T04:23:32.987Z,1.00
2023-01-06T04:26:06.621Z,1.01
2023-01-06T04:28:41.639Z,0.99
2023-01-06T04:31:11.630Z,1.00
2023-01-06T04:33:43.293Z,0.97
2023-01-06T04:36:14.526Z,0.99
2023-01-06T04:38:47.447Z,1.01
2023-01-06T04:41:16.908Z,1.00
2023-01-06T04:43:46.209Z,0.98
2023-01-06T04:46:15.289Z,0.99
2023-01-06T04:48:45.946Z,0.98
2023-01-06T04:51:15.044Z,0.97
2023-01-06T04:53:44.346Z,0.96
2023-01-06T04:56:14.482Z,0.97
2023-01-06T04:58:43.964Z,0.99
2023-01-06T05:01:14.471Z,0.96
2023-01-06T05:03:45.502Z,0.97
2023-01-06T05:06:15.577Z,0.98
2023-01-06T05:08:45.764Z,0.97
2023-01-06T05:11:18.464Z,0.96
2023-01-06T05:13:48.276Z,0.95
2023-01-06T05:16:21.265Z,0.96
2023-01-06T05:18:52.714Z,0.94
2023-01-06T05:21:21.978Z,0.96
2023-01-06T05:23:51.600Z,0.94
2023-01-06T05:26:23.385Z,0.95
2023-01-06T05:28:53.038Z,0.93
2023-01-06T05:31:22.236Z,0.93
2023-01-06T05:33:53.053Z,0.95
2023-01-06T05:36:22.461Z,0.96
2023-01-06T05:38:55.666Z,0.98
2023-01-06T05:41:25.013Z,0.98
2023-01-06T05:43:54.405Z,0.99
2023-01-06T05:46:23.568Z,1.00
2023-01-06T05:48:54.232Z,0.99
2023-01-06T05:51:23.471Z,0.99
2023-01-06T05:53:52.790Z,1.00
2023-01-06T05:56:23.931Z,1.03
2023-01-06T05:58:54.535Z,1.00
2023-01-06T06:01:24.616Z,1.01
2023-01-06T06:03:56.141Z,1.02
2023-01-06T06:06:27.363Z,1.00
2023-01-06T06:08:56.768Z,0.97
2023-01-06T06:11:25.988Z,0.99
2023-01-06T06:13:56.961Z,1.00
2023-01-06T06:16:27.712Z,1.00
2023-01-06T06:19:00.049Z,0.99
2023-01-06T06:21:31.172Z,1.01
2023-01-06T06:24:01.525Z,1.00
2023-01-06T06:26:30.649Z,0.99
2023-01-06T06:28:59.987Z,1.00
2023-01-06T06:31:30.570Z,0.98
2023-01-06T06:34:03.712Z,0.97
2023-01-06T06:36:33.611Z,0.98
2023-01-06T06:39:03.740Z,0.97
2023-01-06T06:41:32.882Z,0.98
2023-01-06T06:44:03.962Z,0.97
2023-01-06T06:46:33.150Z,0.96
2023-01-06T06:49:03.986Z,0.96
2023-01-06T06:51:33.224Z,0.96
2023-01-06T06:54:02.477Z,0.96
2023-01-06T06:56:31.609Z,0.93
2023-01-06T06:59:00.871Z,0.92
2023-01-06T07:01:31.850Z,0.91
2023-01-06T07:04:02.772Z,0.90
2023-01-06T07:06:32.608Z,0.90
2023-01-06T07:09:02.088Z,0.90
2023-01-06T07:11:31.084Z,0.86
2023-01-06T07:14:00.346Z,0.86
2023-01-06T07:16:30.864Z,0.86
2023-01-06T07:19:00.371Z,0.84
2023-01-06T07:21:30.892Z,0.86
2023-01-06T07:24:00.309Z,0.84
2023-01-06T07:26:29.475Z,0.79
2023-01-06T07:28:59.386Z,0.79
2023-01-06T07:31:28.630Z,0.78
2023-01-06T07:33:57.964Z,0.81
2023-01-06T07:36:27.113Z,0.81
2023-01-06T07:38:58.038Z,0.81
2023-01-06T07:41:27.152Z,0.79
2023-01-06T07:43:56.457Z,0.75
2023-01-06T07:46:25.583Z,0.73
2023-01-06T07:48:54.852Z,0.76
2023-01-06T07:51:24.058Z,0.79
2023-01-06T07:53:53.578Z,0.77
2023-01-06T07:56:25.063Z,0.76
2023-01-06T07:58:54.920Z,0.76
2023-01-06T08:01:24.026Z,0.73
2023-01-06T08:03:53.471Z,0.75
2023-01-06T08:06:22.442Z,0.75
2023-01-06T08:08:51.854Z,0.76
2023-01-06T08:11:21.138Z,0.73
2023-01-06T08:13:52.258Z,0.72
2023-01-06T08:16:21.486Z,0.75
2023-01-06T08:18:50.780Z,0.75
2023-01-06T08:21:19.971Z,0.76
2023-01-06T08:23:49.275Z,0.75
2023-01-06T08:26:19.846Z,0.79
2023-01-06T08:28:49.407Z,0.76
2023-01-06T08:31:22.269Z,0.77
2023-01-06T08:33:53.562Z,0.78
2023-01-06T08:36:24.478Z,0.81
2023-01-06T08:38:54.782Z,0.83
2023-01-06T08:41:24.028Z,0.82
2023-01-06T08:43:53.404Z,0.80
2023-01-06T08:46:24.171Z,0.80
2023-01-06T08:48:53.759Z,0.78
2023-01-06T08:51:24.025Z,0.77
2023-01-06T08:53:54.336Z,0.77
2023-01-06T08:56:25.705Z,0.76
2023-01-06T08:58:57.679Z,0.75
2023-01-06T09:01:29.941Z,0.78
2023-01-06T09:04:01.147Z,0.79
2023-01-06T09:06:31.161Z,0.78
2023-01-06T09:09:01.397Z,0.80
2023-01-06T09:11:30.296Z,0.83
2023-01-06T09:13:59.657Z,0.78
2023-01-06T09:16:30.824Z,0.77
2023-01-06T09:19:00.454Z,0.80
2023-01-06T09:21:29.477Z,0.83
2023-01-06T09:23:58.914Z,0.81
2023-01-06T09:26:27.908Z,0.83
2023-01-06T09:28:57.332Z,0.88
2023-01-06T09:31:27.129Z,0.89
2023-01-06T09:33:57.982Z,0.89
2023-01-06T09:36:27.107Z,0.89
2023-01-06T09:38:56.391Z,0.91
2023-01-06T09:41:49.348Z,0.93
2023-01-06T09:44:24.742Z,0.92
2023-01-06T09:46:54.798Z,0.93
2023-01-06T09:49:30.550Z,0.91
2023-01-06T09:52:05.006Z,0.92
2023-01-06T09:54:40.413Z,0.92
2023-01-06T09:57:16.925Z,0.90
2023-01-06T09:59:51.389Z,0.89
2023-01-06T10:02:27.647Z,0.88
2023-01-06T10:04:58.486Z,0.86
2023-01-06T10:07:34.734Z,0.89
2023-01-06T10:10:20.655Z,0.88
2023-01-06T10:13:02.928Z,0.88
2023-01-06T10:15:42.945Z,0.86
2023-01-06T10:18:33.798Z,0.88
2023-01-06T10:21:14.272Z,0.87
2023-01-06T10:24:23.139Z,0.86
2023-01-06T10:26:58.161Z,0.85
2023-01-06T10:29:30.918Z,0.87
2023-01-06T10:32:03.628Z,0.86
2023-01-06T10:34:36.696Z,0.88
2023-01-06T10:37:20.170Z,0.89
2023-01-06T10:39:55.472Z,0.90
2023-01-06T10:42:52.334Z,0.88
2023-01-06T10:45:22.986Z,0.89
2023-01-06T10:47:54.078Z,0.91
2023-01-06T10:50:23.958Z,0.91
2023-01-06T10:52:54.651Z,0.88
2023-01-06T10:55:42.720Z,0.89
2023-01-06T10:58:23.885Z,0.91
2023-01-06T11:01:08.382Z,0.85
2023-01-06T11:03:42.783Z,0.85
2023-01-06T11:06:19.743Z,0.83
2023-01-06T11:08:50.739Z,0.87
2023-01-06T11:11:28.123Z,0.88
2023-01-06T11:14:00.585Z,0.89
2023-01-06T11:16:32.505Z,0.88
2023-01-06T11:19:05.539Z,0.87
2023-01-06T11:21:41.919Z,0.90
2023-01-06T11:24:19.351Z,0.91
2023-01-06T11:26:53.788Z,0.95
2023-01-06T11:29:28.842Z,0.97
2023-01-06T11:32:02.317Z,0.97
2023-01-06T11:34:32.575Z,0.98
2023-01-06T11:37:01.428Z,0.93
2023-01-06T11:39:35.711Z,0.97
2023-01-06T11:42:10.473Z,0.97
2023-01-06T11:44:42.382Z,0.95
2023-01-06T11:47:16.934Z,0.97
2023-01-06T11:49:50.275Z,0.97
2023-01-06T11:52:24.718Z,0.96
2023-01-06T11:55:05.018Z,0.98
2023-01-06T11:57:44.227Z,1.02
2023-01-06T12:00:39.664Z,1.00
2023-01-06T12:03:18.048Z,0.95
2023-01-06T12:05:53.260Z,0.94
2023-01-06T12:08:25.453Z,0.92
2023-01-06T12:11:03.045Z,0.93
2023-01-06T12:13:44.373Z,0.97
2023-01-06T12:16:22.911Z,0.94
2023-01-06T12:18:53.072Z,0.95
2023-01-06T12:21:30.010Z,0.97
2023-01-06T12:24:02.821Z,0.99
2023-01-06T12:26:35.401Z,1.00
2023-01-06T12:29:07.464Z,0.99
2023-01-06T12:31:45.443Z,0.98
2023-01-06T12:34:21.191Z,0.95
2023-01-06T12:36:55.493Z,0.93
2023-01-06T12:39:32.799Z,0.93
2023-01-06T12:42:10.530Z,0.95
2023-01-06T12:44:50.698Z,0.93
2023-01-06T12:47:26.253Z,0.89
2023-01-06T12:49:59.489Z,0.90
2023-01-06T12:52:34.470Z,0.88
2023-01-06T12:55:03.985Z,0.86
2023-01-06T12:58:00.133Z,0.91
2023-01-06T13:00:40.741Z,0.90
2023-01-06T13:03:51.982Z,0.89
2023-01-06T13:06:47.126Z,0.88
2023-01-06T13:09:32.432Z,0.85
2023-01-06T13:12:18.719Z,0.84
2023-01-06T13:14:59.467Z,0.82
2023-01-06T13:17:36.139Z,0.79
2023-01-06T13:20:08.642Z,0.79
2023-01-06T13:22:55.601Z,0.78
2023-01-06T13:25:47.966Z,0.77
2023-01-06T13:28:27.331Z,0.72
2023-01-06T13:31:23.267Z,0.70
2023-01-06T13:34:26.322Z,0.69
2023-01-06T13:37:15.617Z,0.65
2023-01-06T13:39:48.764Z,0.66
2023-01-06T13:42:21.347Z,0.64
2023-01-06T13:44:51.113Z,0.65
2023-01-06T13:47:24.058Z,0.64
2023-01-06T13:49:53.915Z,0.55
2023-01-06T13:52:27.417Z,0.59
2023-01-06T13:55:03.798Z,0.58
2023-01-06T13:57:39.312Z,0.54
2023-01-06T14:00:25.022Z,0.52
2023-01-06T14:03:25.951Z,0.54
2023-01-06T14:06:00.153Z,0.52
2023-01-06T14:08:37.764Z,0.49
2023-01-06T14:11:22.691Z,0.49
2023-01-06T14:13:55.023Z,0.46
2023-01-06T14:16:40.090Z,0.45
2023-01-06T14:19:19.656Z,0.45
2023-01-06T14:21:50.032Z,0.49
2023-01-06T14:24:28.804Z,0.46
2023-01-06T14:27:02.450Z,0.43
2023-01-06T14:29:49.210Z,0.43
2023-01-06T14:33:03.720Z,0.38
2023-01-06T14:35:42.401Z,0.38
2023-01-06T14:38:26.969Z,0.41
2023-01-06T14:41:01.966Z,0.40
2023-01-06T14:43:36.177Z,0.39
2023-01-06T14:46:12.501Z,0.38
2023-01-06T14:48:48.151Z,0.40
2023-01-06T14:51:23.541Z,0.35
2023-01-06T14:54:05.073Z,0.36
2023-01-06T14:56:35.608Z,0.38
2023-01-06T14:59:13.933Z,0.34
2023-01-06T15:01:45.786Z,0.29
2023-01-06T15:04:25.715Z,0.31
2023-01-06T15:07:15.926Z,0.28
2023-01-06T15:09:45.160Z,0.22
2023-01-06T15:12:26.074Z,0.22
2023-01-06T15:14:55.428Z,0.24
2023-01-06T15:17:25.199Z,0.26
2023-01-06T15:19:55.005Z,0.23
2023-01-06T15:22:26.183Z,0.19
2023-01-06T15:24:56.815Z,0.17
2023-01-06T15:27:26.261Z,0.15
2023-01-06T15:29:56.803Z,0.17
2023-01-06T15:32:28.111Z,0.17
2023-01-06T15:34:59.772Z,0.20
2023-01-06T15:37:34.923Z,0.21
2023-01-06T15:40:11.287Z,0.18
2023-01-06T15:42:42.625Z,0.22
2023-01-06T15:45:26.328Z,0.17
2023-01-06T15:47:58.983Z,0.20
2023-01-06T15:50:31.941Z,0.17
2023-01-06T15:53:05.652Z,0.18
2023-01-06T15:55:37.363Z,0.18
2023-01-06T15:58:10.467Z,0.21
2023-01-06T16:00:48.285Z,0.20
2023-01-06T16:03:20.568Z,0.21
2023-01-06T16:05:55.451Z,0.24
2023-01-06T16:08:31.523Z,0.20
2023-01-06T16:11:45.769Z,0.20
2023-01-06T16:14:30.600Z,0.23
2023-01-06T16:17:06.900Z,0.25
2023-01-06T16:19:40.437Z,0.23
2023-01-06T16:22:20.979Z,0.24
2023-01-06T16:24:54.011Z,0.23
2023-01-06T16:27:28.090Z,0.24
2023-01-06T16:30:20.638Z,0.27
2023-01-06T16:32:52.532Z,0.26
2023-01-06T16:35:24.175Z,0.28
2023-01-06T16:37:54.819Z,0.28
2023-01-06T16:40:28.208Z,0.27
2023-01-06T16:43:00.363Z,0.27
2023-01-06T16:45:36.486Z,0.31
2023-01-06T16:48:06.123Z,0.32
2023-01-06T16:50:40.470Z,0.33
2023-01-06T16:53:17.085Z,0.37
2023-01-06T16:55:53.279Z,0.39
2023-01-06T16:58:24.395Z,0.35
2023-01-06T17:00:56.545Z,0.38
2023-01-06T17:03:28.823Z,0.40
2023-01-06T17:05:58.930Z,0.41
2023-01-06T17:08:31.311Z,0.41
2023-01-06T17:11:07.895Z,0.39
2023-01-06T17:13:37.017Z,0.40
2023-01-06T17:16:16.619Z,0.44
2023-01-06T17:18:54.488Z,0.49
2023-01-06T17:21:26.225Z,0.48
2023-01-06T17:23:59.041Z,0.49
2023-01-06T17:26:30.648Z,0.52
2023-01-06T17:29:01.045Z,0.55
2023-01-06T17:31:36.023Z,0.55
2023-01-06T17:34:14.796Z,0.56
2023-01-06T17:36:46.902Z,0.55
2023-01-06T17:39:20.939Z,0.60
2023-01-06T17:41:55.584Z,0.58
2023-01-06T17:44:35.139Z,0.61
2023-01-06T17:47:07.606Z,0.62
2023-01-06T17:49:37.945Z,0.63
2023-01-06T17:52:17.897Z,0.64
2023-01-06T17:55:12.499Z,0.65
2023-01-06T17:57:47.222Z,0.63
2023-01-06T18:00:24.082Z,0.66
2023-01-06T18:03:00.418Z,0.67
2023-01-06T18:06:15.578Z,0.67
2023-01-06T18:08:46.109Z,0.67
2023-01-06T18:11:38.910Z,0.68
2023-01-06T18:14:23.657Z,0.69
2023-01-06T18:16:56.760Z,0.70
2023-01-06T18:19:34.393Z,0.71
2023-01-06T18:22:11.062Z,0.75
2023-01-06T18:24:41.803Z,0.78
2023-01-06T18:27:20.604Z,0.80
2023-01-06T18:29:52.120Z,0.80
2023-01-06T18:32:28.936Z,0.83
2023-01-06T18:35:00.226Z,0.85
2023-01-06T18:37:31.480Z,0.87
2023-01-06T18:40:07.855Z,0.88
2023-01-06T18:42:44.910Z,0.91
2023-01-06T18:45:25.870Z,0.92
2023-01-06T18:47:57.836Z,0.92
2023-01-06T18:50:55.015Z,0.96
2023-01-06T18:53:28.525Z,0.96
2023-01-06T18:55:59.921Z,0.99
2023-01-06T18:58:41.312Z,1.03
2023-01-06T19:01:20.296Z,1.04
2023-01-06T19:04:00.607Z,1.07
2023-01-06T19:06:41.354Z,1.08
2023-01-06T19:09:35.955Z,1.08
2023-01-06T19:12:19.301Z,1.11
2023-01-06T19:14:51.657Z,1.16
2023-01-06T19:17:29.973Z,1.17
2023-01-06T19:20:09.124Z,1.16
2023-01-06T19:22:42.787Z,1.16
2023-01-06T19:25:27.142Z,1.20
2023-01-06T19:27:58.016Z,1.21
2023-01-06T19:30:41.405Z,1.22
2023-01-06T19:33:34.913Z,1.23
2023-01-06T19:36:36.203Z,1.24
2023-01-06T19:39:22.747Z,1.27
2023-01-06T19:41:53.767Z,1.26
2023-01-06T19:44:29.654Z,1.26
2023-01-06T19:47:02.625Z,1.30
2023-01-06T19:49:41.197Z,1.32
2023-01-06T19:52:39.269Z,1.34
2023-01-06T19:55:21.390Z,1.37
2023-01-06T19:57:53.230Z,1.41
2023-01-06T20:00:29.388Z,1.41
2023-01-06T20:03:01.791Z,1.41
2023-01-06T20:05:34.504Z,1.44
2023-01-06T20:08:03.587Z,1.45
2023-01-06T20:10:33.030Z,1.46
2023-01-06T20:13:02.428Z,1.49
2023-01-06T20:15:32.191Z,1.48
2023-01-06T20:18:01.436Z,1.48
2023-01-06T20:20:33.148Z,1.50
2023-01-06T20:23:02.686Z,1.52
2023-01-06T20:25:31.931Z,1.53
2023-01-06T20:28:00.960Z,1.55
2023-01-06T20:30:30.466Z,1.56
2023-01-06T20:32:59.829Z,1.58
2023-01-06T20:35:29.765Z,1.59
2023-01-06T20:38:00.506Z,1.60
2023-01-06T20:40:29.801Z,1.62
2023-01-06T20:42:59.478Z,1.64
2023-01-06T20:45:29.026Z,1.66
2023-01-06T20:47:58.132Z,1.67
2023-01-06T20:50:28.815Z,1.69
2023-01-06T20:52:59.872Z,1.69
2023-01-06T20:55:29.191Z,1.70
2023-01-06T20:57:58.427Z,1.71
2023-01-06T21:00:28.790Z,1.72
2023-01-06T21:02:57.926Z,1.73
2023-01-06T21:05:28.918Z,1.74
2023-01-06T21:07:59.452Z,1.74
2023-01-06T21:10:29.118Z,1.76
2023-01-06T21:12:58.748Z,1.77
2023-01-06T21:15:28.413Z,1.77
2023-01-06T21:17:57.836Z,1.78
2023-01-06T21:20:27.251Z,1.80
2023-01-06T21:22:56.379Z,1.81
2023-01-06T21:25:27.158Z,1.82
2023-01-06T21:27:56.269Z,1.80
2023-01-06T21:30:27.967Z,1.85
2023-01-06T21:32:57.159Z,1.82
2023-01-06T21:35:26.543Z,1.84
2023-01-06T21:37:55.659Z,1.85
2023-01-06T21:40:26.606Z,1.87
2023-01-06T21:43:09.715Z,1.87
2023-01-06T21:45:40.087Z,1.88
2023-01-06T21:48:12.581Z,1.89
2023-01-06T21:50:45.978Z,1.89
2023-01-06T21:53:15.670Z,1.90
2023-01-06T21:55:46.316Z,1.92
2023-01-06T21:58:15.410Z,1.92
2023-01-06T22:00:44.651Z,1.95
2023-01-06T22:03:14.378Z,1.96
2023-01-06T22:05:43.885Z,1.95
2023-01-06T22:08:13.608Z,1.96
2023-01-06T22:10:43.736Z,1.94
2023-01-06T22:13:18.267Z,1.94
2023-01-06T22:15:48.049Z,1.96
2023-01-06T22:18:17.869Z,1.97
2023-01-06T22:20:47.691Z,1.98
2023-01-06T22:23:19.701Z,1.99
2023-01-06T22:25:50.780Z,2.00
2023-01-06T22:28:21.445Z,2.00
2023-01-06T22:30:51.530Z,2.02
2023-01-06T22:33:20.635Z,2.02
2023-01-06T22:35:50.157Z,2.03
2023-01-06T22:38:19.471Z,2.03
2023-01-06T22:40:48.724Z,2.02
2023-01-06T22:43:18.309Z,2.01
2023-01-06T22:45:55.142Z,2.01
2023-01-06T22:48:24.835Z,2.01
2023-01-06T22:50:58.896Z,2.00
2023-01-06T22:53:28.839Z,2.00
2023-01-06T22:55:59.124Z,2.00
2023-01-06T22:58:28.148Z,1.99
2023-01-06T23:00:58.928Z,1.98
2023-01-06T23:03:28.746Z,2.00
2023-01-06T23:05:59.467Z,2.00
2023-01-06T23:08:30.030Z,2.01
2023-01-06T23:11:03.804Z,2.02
2023-01-06T23:13:33.317Z,2.04
2023-01-06T23:16:06.459Z,2.04
2023-01-06T23:18:38.994Z,2.04
2023-01-06T23:21:10.379Z,2.05
2023-01-06T23:23:41.206Z,2.06
2023-01-06T23:26:13.339Z,2.08
2023-01-06T23:28:43.773Z,2.08
2023-01-06T23:31:17.434Z,2.09
2023-01-06T23:33:48.239Z,2.10
2023-01-06T23:36:19.763Z,2.09
2023-01-06T23:38:49.107Z,2.09
2023-01-06T23:41:21.901Z,2.09
2023-01-06T23:43:52.014Z,2.10
2023-01-06T23:46:25.366Z,2.12
2023-01-06T23:48:55.338Z,2.12
2023-01-06T23:51:25.663Z,2.13
2023-01-06T23:53:54.588Z,2.10
2023-01-06T23:56:25.695Z,2.10
2023-01-06T23:58:56.180Z,2.11
